createdAt,value
2022-10-26T00:01:07.687Z,61.17
2022-10-26T00:03:35.856Z,61.15
2022-10-26T00:06:11.729Z,61.78
2022-10-26T00:08:38.680Z,61.81
2022-10-26T00:11:06.506Z,61.79
2022-10-26T00:13:34.134Z,61.55
2022-10-26T00:16:01.323Z,62.08
2022-10-26T00:18:28.476Z,61.71
2022-10-26T00:20:55.232Z,61.65
2022-10-26T00:23:21.793Z,61.75
2022-10-26T00:25:56.291Z,61.98
2022-10-26T00:28:23.056Z,61.72
2022-10-26T00:30:49.734Z,61.62
2022-10-26T00:33:16.775Z,61.96
2022-10-26T00:35:46.584Z,61.90
2022-10-26T00:38:13.528Z,62.29
2022-10-26T00:40:40.680Z,62.27
2022-10-26T00:43:34.955Z,62.03
2022-10-26T00:46:03.017Z,62.40
2022-10-26T00:48:34.258Z,61.99
2022-10-26T00:51:04.926Z,62.29
2022-10-26T00:53:33.019Z,62.05
2022-10-26T00:56:01.187Z,62.39
2022-10-26T00:58:28.350Z,61.94
2022-10-26T01:00:55.663Z,62.10
2022-10-26T01:03:25.415Z,62.10
2022-10-26T01:05:56.715Z,62.70
2022-10-26T01:08:24.708Z,62.46
2022-10-26T01:10:52.089Z,62.39
2022-10-26T01:13:19.412Z,62.39
2022-10-26T01:16:05.177Z,62.63
2022-10-26T01:18:47.715Z,62.67
2022-10-26T01:21:49.959Z,62.71
2022-10-26T01:24:26.192Z,62.72
2022-10-26T01:27:06.024Z,62.86
2022-10-26T01:29:35.621Z,62.47
2022-10-26T01:32:14.103Z,62.85
2022-10-26T01:34:52.153Z,62.45
2022-10-26T01:37:31.008Z,62.69
2022-10-26T01:40:09.775Z,62.61
2022-10-26T01:42:43.129Z,62.99
2022-10-26T01:45:12.417Z,62.57
2022-10-26T01:47:39.624Z,62.75
2022-10-26T01:50:08.871Z,62.57
2022-10-26T01:52:35.770Z,62.66
2022-10-26T01:55:26.143Z,62.70
2022-10-26T01:57:55.436Z,62.42
2022-10-26T02:00:22.014Z,62.55
2022-10-26T02:03:04.532Z,62.50
2022-10-26T02:06:03.076Z,62.37
2022-10-26T02:08:50.664Z,62.48
2022-10-26T02:11:46.590Z,61.97
2022-10-26T02:14:22.296Z,62.46
2022-10-26T02:16:56.113Z,62.75
2022-10-26T02:19:28.469Z,62.39
2022-10-26T02:22:02.468Z,62.50
2022-10-26T02:24:31.778Z,62.37
2022-10-26T02:27:00.122Z,62.53
2022-10-26T02:29:28.841Z,62.59
2022-10-26T02:31:57.917Z,62.26
2022-10-26T02:34:28.365Z,62.33
2022-10-26T02:36:58.113Z,62.77
2022-10-26T02:39:27.443Z,62.31
2022-10-26T02:41:55.315Z,62.68
2022-10-26T02:44:26.423Z,62.50
2022-10-26T02:46:55.412Z,62.44
2022-10-26T02:49:22.095Z,62.71
2022-10-26T02:52:11.307Z,62.38
2022-10-26T02:54:54.114Z,62.05
2022-10-26T02:57:31.674Z,62.46
2022-10-26T02:59:59.910Z,62.44
2022-10-26T03:02:27.736Z,62.36
2022-10-26T03:04:56.233Z,62.26
2022-10-26T03:07:24.484Z,62.32
2022-10-26T03:09:51.506Z,62.46
2022-10-26T03:12:18.415Z,62.38
2022-10-26T03:14:45.106Z,62.34
2022-10-26T03:17:11.778Z,62.14
2022-10-26T03:19:38.450Z,62.37
2022-10-26T03:22:05.064Z,62.18
2022-10-26T03:24:31.857Z,62.33
2022-10-26T03:27:01.255Z,62.24
2022-10-26T03:29:28.963Z,61.93
2022-10-26T03:31:55.596Z,61.78
2022-10-26T03:34:22.209Z,62.11
2022-10-26T03:36:48.918Z,62.15
2022-10-26T03:39:15.759Z,61.77
2022-10-26T03:41:42.453Z,61.84
2022-10-26T03:44:09.158Z,62.01
2022-10-26T03:46:35.750Z,62.06
2022-10-26T03:49:02.312Z,62.21
2022-10-26T03:51:29.104Z,62.04
2022-10-26T03:53:55.693Z,62.16
2022-10-26T03:56:22.314Z,62.15
2022-10-26T03:58:49.011Z,61.70
2022-10-26T04:01:15.737Z,62.22
2022-10-26T04:03:42.324Z,62.26
2022-10-26T04:06:08.841Z,62.08
2022-10-26T04:08:35.572Z,62.17
2022-10-26T04:11:03.948Z,61.96
2022-10-26T04:13:31.645Z,62.04
2022-10-26T04:15:58.711Z,62.01
2022-10-26T04:18:25.323Z,61.96
2022-10-26T04:20:51.931Z,61.88
2022-10-26T04:23:20.974Z,62.13
2022-10-26T04:25:47.757Z,62.07
2022-10-26T04:28:14.762Z,61.79
2022-10-26T04:30:41.393Z,61.82
2022-10-26T04:33:07.976Z,61.95
2022-10-26T04:35:34.868Z,61.87
2022-10-26T04:38:03.548Z,61.77
2022-10-26T04:40:31.867Z,61.99
2022-10-26T04:42:58.552Z,61.91
2022-10-26T04:45:28.152Z,61.57
2022-10-26T04:48:13.895Z,61.39
2022-10-26T04:50:40.857Z,61.11
2022-10-26T04:53:10.358Z,61.38
2022-10-26T04:55:37.230Z,61.23
2022-10-26T04:58:04.507Z,61.47
2022-10-26T05:00:32.923Z,61.21
2022-10-26T05:03:04.868Z,61.40
2022-10-26T05:05:34.107Z,61.69
2022-10-26T05:08:00.864Z,61.44
2022-10-26T05:10:28.298Z,61.57
2022-10-26T05:12:57.190Z,61.67
2022-10-26T05:15:24.267Z,61.61
2022-10-26T05:17:58.798Z,61.94
2022-10-26T05:20:31.137Z,61.66
2022-10-26T05:22:59.465Z,61.75
2022-10-26T05:25:26.598Z,61.61
2022-10-26T05:27:58.253Z,61.96
2022-10-26T05:30:25.074Z,61.89
2022-10-26T05:32:58.818Z,62.19
2022-10-26T05:35:26.659Z,62.24
2022-10-26T05:37:53.834Z,61.79
2022-10-26T05:40:21.706Z,61.83
2022-10-26T05:42:48.668Z,61.57
2022-10-26T05:45:15.487Z,61.96
2022-10-26T05:47:44.221Z,62.02
2022-10-26T05:50:12.187Z,61.97
2022-10-26T05:52:46.826Z,62.19
2022-10-26T05:55:16.101Z,62.24
2022-10-26T05:57:43.217Z,62.09
2022-10-26T06:00:16.199Z,62.27
2022-10-26T06:03:08.137Z,62.57
2022-10-26T06:05:51.164Z,62.59
2022-10-26T06:08:18.295Z,62.10
2022-10-26T06:10:45.174Z,62.32
2022-10-26T06:13:11.981Z,62.36
2022-10-26T06:15:50.572Z,62.41
2022-10-26T06:18:28.637Z,62.20
2022-10-26T06:21:49.063Z,62.14
2022-10-26T06:24:31.456Z,62.43
2022-10-26T06:27:04.202Z,62.44
2022-10-26T06:29:51.169Z,62.46
2022-10-26T06:32:17.977Z,62.44
2022-10-26T06:34:48.791Z,62.56
2022-10-26T06:37:16.752Z,62.67
2022-10-26T06:39:52.616Z,62.41
2022-10-26T06:42:21.725Z,63.12
2022-10-26T06:44:49.063Z,63.54
2022-10-26T06:47:23.491Z,63.26
2022-10-26T06:49:59.447Z,63.07
2022-10-26T06:52:42.911Z,62.44
2022-10-26T06:55:16.619Z,62.44
2022-10-26T06:57:44.399Z,62.37
2022-10-26T07:00:21.041Z,62.30
2022-10-26T07:02:49.599Z,62.05
2022-10-26T07:05:16.459Z,62.41
2022-10-26T07:07:46.383Z,62.57
2022-10-26T07:10:14.767Z,62.24
2022-10-26T07:12:41.543Z,62.60
2022-10-26T07:17:46.591Z,62.41
2022-10-26T07:20:14.596Z,62.64
2022-10-26T07:22:42.854Z,62.12
2022-10-26T07:25:10.077Z,62.10
2022-10-26T07:27:36.893Z,62.07
2022-10-26T07:30:04.517Z,61.90
2022-10-26T07:32:31.266Z,62.54
2022-10-26T07:34:58.060Z,62.26
2022-10-26T07:37:24.705Z,62.06
2022-10-26T07:39:51.253Z,62.38
2022-10-26T07:42:17.969Z,62.66
2022-10-26T07:44:44.619Z,61.95
2022-10-26T07:47:11.301Z,61.95
2022-10-26T07:49:37.903Z,61.70
2022-10-26T07:52:04.868Z,62.37
2022-10-26T07:54:32.100Z,62.16
2022-10-26T07:56:59.386Z,62.24
2022-10-26T07:59:26.216Z,62.48
2022-10-26T08:01:53.073Z,62.44
2022-10-26T08:04:19.738Z,62.19
2022-10-26T08:06:47.321Z,62.65
2022-10-26T08:09:13.818Z,63.24
2022-10-26T08:11:40.410Z,63.16
2022-10-26T08:14:06.915Z,62.93
2022-10-26T08:16:35.019Z,63.35
2022-10-26T08:19:01.646Z,63.20
2022-10-26T08:21:46.405Z,63.87
2022-10-26T08:24:13.436Z,63.75
2022-10-26T08:26:40.061Z,63.50
2022-10-26T08:29:06.705Z,63.43
2022-10-26T08:31:33.636Z,63.41
2022-10-26T08:34:00.300Z,63.14
2022-10-26T08:36:27.985Z,63.08
2022-10-26T08:38:54.848Z,62.83
2022-10-26T08:41:47.392Z,62.56
2022-10-26T08:44:29.281Z,62.59
2022-10-26T08:47:00.574Z,62.53
2022-10-26T08:49:37.629Z,62.78
2022-10-26T08:52:06.401Z,62.69
2022-10-26T08:54:43.592Z,62.52
2022-10-26T08:57:35.656Z,62.45
2022-10-26T09:00:22.759Z,62.48
2022-10-26T09:02:53.205Z,62.41
2022-10-26T09:05:43.144Z,62.01
2022-10-26T09:08:18.272Z,62.58
2022-10-26T09:11:08.201Z,62.17
2022-10-26T09:13:44.668Z,62.34
2022-10-26T09:16:36.664Z,62.58
2022-10-26T09:19:22.748Z,62.59
2022-10-26T09:22:03.337Z,62.62
2022-10-26T09:24:33.782Z,62.58
2022-10-26T09:29:42.979Z,62.83
2022-10-26T09:32:21.426Z,62.54
2022-10-26T09:34:55.119Z,62.56
2022-10-26T09:37:28.595Z,62.34
2022-10-26T09:40:04.739Z,62.68
2022-10-26T09:42:43.635Z,62.50
2022-10-26T09:45:39.491Z,63.07
2022-10-26T09:48:30.253Z,62.77
2022-10-26T09:51:01.968Z,62.80
2022-10-26T09:53:32.131Z,62.50
2022-10-26T09:56:05.654Z,62.76
2022-10-26T09:58:59.567Z,62.71
2022-10-26T10:01:38.145Z,62.69
2022-10-26T10:04:14.154Z,63.63
2022-10-26T10:06:41.052Z,63.33
2022-10-26T10:09:11.742Z,63.75
2022-10-26T10:11:40.297Z,63.69
2022-10-26T10:14:09.312Z,63.57
2022-10-26T10:16:36.343Z,63.43
2022-10-26T10:19:03.383Z,63.41
2022-10-26T10:21:36.959Z,63.71
2022-10-26T10:24:20.870Z,63.14
2022-10-26T10:27:02.644Z,63.29
2022-10-26T10:29:34.864Z,62.98
2022-10-26T10:32:03.497Z,63.47
2022-10-26T10:34:31.679Z,63.34
2022-10-26T10:37:00.986Z,62.89
2022-10-26T10:39:33.366Z,63.10
2022-10-26T10:42:01.096Z,62.84
2022-10-26T10:44:31.430Z,62.96
2022-10-26T10:47:06.183Z,62.70
2022-10-26T10:49:34.210Z,62.99
2022-10-26T10:52:01.064Z,62.66
2022-10-26T10:54:30.059Z,62.83
2022-10-26T10:57:18.157Z,63.19
2022-10-26T10:59:53.798Z,62.86
2022-10-26T11:02:34.737Z,62.94
2022-10-26T11:05:07.493Z,62.52
2022-10-26T11:07:47.972Z,62.78
2022-10-26T11:10:17.730Z,62.52
2022-10-26T11:12:51.488Z,62.38
2022-10-26T11:15:23.620Z,62.68
2022-10-26T11:18:00.649Z,62.70
2022-10-26T11:20:29.924Z,62.45
2022-10-26T11:23:17.981Z,61.97
2022-10-26T11:25:51.432Z,62.57
2022-10-26T11:28:56.521Z,62.46
2022-10-26T11:31:36.840Z,62.44
2022-10-26T11:34:13.779Z,62.15
2022-10-26T11:36:43.775Z,62.24
2022-10-26T11:39:46.107Z,62.38
2022-10-26T11:42:30.298Z,62.64
2022-10-26T11:45:03.405Z,62.17
2022-10-26T11:47:42.349Z,62.12
2022-10-26T11:50:21.159Z,61.99
2022-10-26T11:52:56.350Z,62.46
2022-10-26T11:55:23.043Z,62.19
2022-10-26T11:57:56.082Z,62.61
2022-10-26T12:00:26.969Z,62.79
2022-10-26T12:03:01.076Z,62.36
2022-10-26T12:05:54.177Z,62.79
2022-10-26T12:20:50.316Z,63.92
2022-10-26T12:23:23.434Z,63.98
2022-10-26T12:26:28.816Z,63.48
2022-10-26T12:29:01.784Z,63.27
2022-10-26T12:31:37.193Z,63.23
2022-10-26T12:34:05.970Z,63.01
2022-10-26T12:36:57.302Z,63.04
2022-10-26T12:39:36.288Z,62.79
2022-10-26T12:42:05.693Z,62.74
2022-10-26T12:44:58.161Z,62.73
2022-10-26T12:47:27.734Z,62.55
2022-10-26T12:50:06.313Z,62.51
2022-10-26T12:52:44.855Z,62.57
2022-10-26T12:55:20.523Z,62.46
2022-10-26T12:57:54.206Z,62.05
2022-10-26T13:00:25.920Z,62.11
2022-10-26T13:03:30.136Z,61.99
2022-10-26T13:06:05.748Z,61.86
2022-10-26T13:08:45.390Z,62.29
2022-10-26T13:11:17.966Z,62.17
2022-10-26T13:13:52.576Z,62.42
2022-10-26T13:16:19.616Z,62.20
2022-10-26T13:18:51.043Z,62.40
2022-10-26T13:21:20.559Z,62.75
2022-10-26T13:24:02.184Z,62.61
2022-10-26T13:26:31.329Z,62.76
2022-10-26T13:28:59.254Z,62.30
2022-10-26T13:31:31.763Z,62.35
2022-10-26T13:37:05.980Z,62.78
2022-10-26T13:39:39.446Z,62.89
2022-10-26T13:42:10.217Z,62.41
2022-10-26T13:44:48.138Z,62.73
2022-10-26T13:47:32.763Z,62.42
2022-10-26T13:50:08.107Z,62.74
2022-10-26T13:52:41.574Z,62.47
2022-10-26T13:55:10.699Z,62.60
2022-10-26T13:57:42.181Z,62.55
2022-10-26T14:00:17.119Z,62.71
2022-10-26T14:02:44.674Z,62.60
2022-10-26T14:05:14.638Z,62.73
2022-10-26T14:07:46.688Z,63.31
2022-10-26T14:10:38.379Z,62.91
2022-10-26T14:13:13.503Z,62.75
2022-10-26T14:15:43.972Z,62.60
2022-10-26T14:18:24.495Z,62.37
2022-10-26T14:21:00.113Z,62.77
2022-10-26T14:23:45.248Z,62.63
2022-10-26T14:26:28.413Z,62.86
2022-10-26T14:29:00.839Z,62.55
2022-10-26T14:31:30.408Z,62.38
2022-10-26T14:33:59.405Z,62.64
2022-10-26T14:36:46.665Z,62.03
2022-10-26T14:39:37.296Z,61.92
2022-10-26T14:42:18.523Z,62.10
2022-10-26T14:44:45.125Z,62.51
2022-10-26T14:47:25.721Z,62.08
2022-10-26T14:49:52.884Z,62.21
2022-10-26T14:52:32.213Z,61.76
2022-10-26T14:55:19.089Z,61.81
2022-10-26T14:57:48.006Z,62.02
2022-10-26T15:00:24.402Z,61.99
2022-10-26T15:02:56.690Z,62.16
2022-10-26T15:05:24.980Z,62.31
2022-10-26T15:08:16.153Z,61.85
2022-10-26T15:10:48.740Z,61.91
2022-10-26T15:13:33.280Z,61.76
2022-10-26T15:16:20.621Z,61.86
2022-10-26T15:18:51.386Z,62.08
2022-10-26T15:21:28.149Z,61.88
2022-10-26T15:23:55.778Z,61.61
2022-10-26T15:26:22.416Z,61.85
2022-10-26T15:28:49.869Z,61.69
2022-10-26T15:31:16.627Z,61.83
2022-10-26T15:34:04.319Z,61.62
2022-10-26T15:36:32.537Z,61.32
2022-10-26T15:38:59.640Z,61.32
2022-10-26T15:41:36.759Z,61.31
2022-10-26T15:44:13.790Z,61.75
2022-10-26T15:46:40.547Z,62.33
2022-10-26T15:49:14.552Z,62.13
2022-10-26T15:51:41.320Z,62.44
2022-10-26T15:54:09.394Z,62.32
2022-10-26T15:56:36.696Z,62.27
2022-10-26T15:59:03.269Z,62.21
2022-10-26T16:01:30.254Z,62.02
2022-10-26T16:03:56.923Z,62.42
2022-10-26T16:06:27.882Z,61.75
2022-10-26T16:08:58.217Z,61.70
2022-10-26T16:11:25.202Z,61.67
2022-10-26T16:14:10.908Z,61.65
2022-10-26T16:16:37.581Z,61.64
2022-10-26T16:19:31.764Z,61.91
2022-10-26T16:21:51.421Z,61.51
2022-10-26T16:24:18.544Z,61.55
2022-10-26T16:26:45.665Z,61.63
2022-10-26T16:29:12.411Z,61.64
2022-10-26T16:31:39.226Z,61.36
2022-10-26T16:34:06.037Z,61.48
2022-10-26T16:36:34.505Z,61.47
2022-10-26T16:41:28.823Z,61.51
2022-10-26T16:43:56.403Z,61.50
2022-10-26T16:46:23.405Z,61.48
2022-10-26T16:48:51.311Z,61.67
2022-10-26T16:51:26.460Z,61.58
2022-10-26T16:53:54.982Z,62.15
2022-10-26T16:56:24.511Z,61.72
2022-10-26T16:59:10.655Z,62.00
2022-10-26T17:01:37.345Z,61.69
2022-10-26T17:06:30.621Z,61.94
2022-10-26T17:08:57.242Z,61.90
2022-10-26T17:11:24.090Z,61.69
2022-10-26T17:13:54.391Z,61.96
2022-10-26T17:16:23.642Z,61.94
2022-10-26T17:18:50.390Z,61.78
2022-10-26T17:21:19.644Z,61.86
2022-10-26T17:23:46.436Z,62.20
2022-10-26T17:26:14.622Z,62.10
2022-10-26T17:28:41.577Z,62.39
2022-10-26T17:31:13.373Z,61.95
2022-10-26T17:33:42.836Z,61.83
2022-10-26T17:36:11.909Z,62.41
2022-10-26T17:38:40.391Z,61.88
2022-10-26T17:41:13.010Z,61.79
2022-10-26T17:43:42.440Z,62.35
2022-10-26T17:46:15.114Z,62.26
2022-10-26T17:48:41.973Z,62.36
2022-10-26T17:51:12.385Z,62.05
2022-10-26T17:53:39.093Z,62.00
2022-10-26T17:56:08.288Z,62.42
2022-10-26T17:58:35.361Z,62.28
2022-10-26T18:01:04.587Z,62.65
2022-10-26T18:03:32.158Z,62.33
2022-10-26T18:05:59.076Z,62.47
2022-10-26T18:08:26.512Z,62.61
2022-10-26T18:10:58.950Z,62.37
2022-10-26T18:13:31.487Z,62.65
2022-10-26T18:16:09.133Z,62.75
2022-10-26T18:18:37.018Z,62.54
2022-10-26T18:21:09.191Z,62.71
2022-10-26T18:23:36.331Z,62.49
2022-10-26T18:26:11.199Z,62.69
2022-10-26T18:28:41.484Z,62.69
2022-10-26T18:31:10.324Z,62.50
2022-10-26T18:33:37.453Z,62.49
2022-10-26T18:36:09.793Z,62.79
2022-10-26T18:38:36.901Z,62.34
2022-10-26T18:41:04.170Z,62.85
2022-10-26T18:43:31.465Z,62.50
2022-10-26T18:46:09.247Z,62.55
2022-10-26T18:48:36.598Z,62.53
2022-10-26T18:51:05.533Z,62.53
2022-10-26T18:53:36.288Z,62.37
2022-10-26T18:56:05.738Z,62.79
2022-10-26T18:58:34.578Z,62.61
2022-10-26T19:01:20.972Z,62.90
2022-10-26T19:03:48.059Z,62.65
2022-10-26T19:06:17.494Z,62.62
2022-10-26T19:08:44.157Z,62.53
2022-10-26T19:11:16.250Z,62.93
2022-10-26T19:13:43.298Z,62.48
2022-10-26T19:16:17.434Z,62.59
2022-10-26T19:18:56.248Z,62.67
2022-10-26T19:21:24.310Z,62.42
2022-10-26T19:23:55.560Z,62.70
2022-10-26T19:26:25.009Z,62.53
2022-10-26T19:28:55.555Z,62.59
2022-10-26T19:31:26.232Z,62.61
2022-10-26T19:33:56.488Z,62.83
2022-10-26T19:36:23.165Z,62.63
2022-10-26T19:38:49.930Z,62.98
2022-10-26T19:41:17.075Z,63.72
2022-10-26T19:43:44.417Z,62.83
2022-10-26T19:46:17.109Z,62.89
2022-10-26T19:48:49.335Z,63.25
2022-10-26T19:51:16.221Z,63.05
2022-10-26T19:53:43.008Z,62.99
2022-10-26T19:56:13.469Z,62.95
2022-10-26T19:58:42.038Z,63.12
2022-10-26T20:01:09.972Z,63.24
2022-10-26T20:03:37.582Z,62.78
2022-10-26T20:06:13.513Z,63.12
2022-10-26T20:08:42.179Z,63.13
2022-10-26T20:11:13.095Z,63.21
2022-10-26T20:13:43.601Z,63.04
2022-10-26T20:16:29.715Z,62.82
2022-10-26T20:18:56.292Z,62.85
2022-10-26T20:21:23.038Z,62.92
2022-10-26T20:23:50.036Z,63.09
2022-10-26T20:26:19.654Z,62.19
2022-10-26T20:28:48.601Z,62.25
2022-10-26T20:31:15.527Z,62.54
2022-10-26T20:33:42.522Z,62.66
2022-10-26T20:36:09.495Z,62.85
2022-10-26T20:38:36.527Z,62.71
2022-10-26T20:41:06.377Z,62.52
2022-10-26T20:43:41.538Z,62.42
2022-10-26T20:46:24.433Z,62.51
2022-10-26T20:48:52.502Z,62.58
2022-10-26T20:51:37.854Z,62.22
2022-10-26T20:54:16.244Z,62.61
2022-10-26T20:56:44.743Z,62.22
2022-10-26T20:59:22.223Z,62.16
2022-10-26T21:01:48.861Z,62.41
2022-10-26T21:04:15.498Z,62.37
2022-10-26T21:06:42.154Z,62.10
2022-10-26T21:09:09.554Z,62.15
2022-10-26T21:11:36.167Z,62.02
2022-10-26T21:14:05.113Z,62.07
2022-10-26T21:16:31.910Z,62.33
2022-10-26T21:19:00.206Z,62.24
2022-10-26T21:21:26.915Z,61.96
2022-10-26T21:23:53.462Z,62.29
2022-10-26T21:26:19.997Z,61.92
2022-10-26T21:28:46.648Z,62.23
2022-10-26T21:31:15.806Z,62.25
2022-10-26T21:33:43.553Z,62.24
2022-10-26T21:36:12.254Z,61.67
2022-10-26T21:38:40.299Z,62.06
2022-10-26T21:41:10.333Z,62.13
2022-10-26T21:43:38.204Z,62.27
2022-10-26T21:46:05.367Z,61.86
2022-10-26T21:48:35.230Z,61.71
2022-10-26T21:51:03.983Z,62.18
2022-10-26T21:53:30.524Z,62.68
2022-10-26T21:56:02.080Z,62.58
2022-10-26T21:58:29.925Z,62.48
2022-10-26T22:01:15.398Z,62.65
2022-10-26T22:03:43.377Z,62.01
2022-10-26T22:06:13.577Z,62.23
2022-10-26T22:08:40.215Z,62.19
2022-10-26T22:11:15.938Z,62.27
2022-10-26T22:13:47.281Z,62.34
2022-10-26T22:16:25.368Z,62.87
2022-10-26T22:18:54.971Z,62.55
2022-10-26T22:21:23.589Z,62.27
2022-10-26T22:23:50.129Z,62.25
2022-10-26T22:26:19.648Z,62.76
2022-10-26T22:28:47.587Z,62.67
2022-10-26T22:31:17.669Z,62.27
2022-10-26T22:33:44.651Z,62.58
2022-10-26T22:36:13.789Z,62.68
2022-10-26T22:38:41.576Z,62.69
2022-10-26T22:41:09.570Z,62.75
2022-10-26T22:43:36.719Z,62.64
2022-10-26T22:46:09.820Z,62.66
2022-10-26T22:48:37.246Z,62.66
2022-10-26T22:51:24.733Z,62.99
2022-10-26T22:53:53.512Z,62.92
2022-10-26T22:56:21.366Z,63.11
2022-10-26T22:58:48.194Z,63.08
2022-10-26T23:01:17.323Z,63.21
2022-10-26T23:03:44.414Z,63.04
2022-10-26T23:06:13.954Z,63.45
2022-10-26T23:08:41.130Z,63.26
2022-10-26T23:11:10.681Z,62.89
2022-10-26T23:13:37.723Z,63.38
2022-10-26T23:16:09.294Z,63.48
2022-10-26T23:18:35.947Z,63.05
2022-10-26T23:21:03.819Z,63.36
2022-10-26T23:23:30.705Z,63.80
2022-10-26T23:26:02.043Z,63.47
2022-10-26T23:28:29.144Z,63.56
2022-10-26T23:30:55.930Z,63.63
2022-10-26T23:33:22.879Z,63.54
2022-10-26T23:35:53.177Z,63.40
2022-10-26T23:38:20.221Z,63.93
2022-10-26T23:40:55.425Z,63.98
2022-10-26T23:43:22.725Z,63.65
2022-10-26T23:45:49.947Z,63.78
2022-10-26T23:48:17.644Z,63.75
2022-10-26T23:50:45.039Z,63.83
2022-10-26T23:53:13.514Z,64.02
2022-10-26T23:55:40.304Z,63.72
2022-10-26T23:58:06.902Z,63.69
